createdAt,value
2023-01-04T08:22:11.992Z,95.58
2023-01-04T08:24:21.815Z,95.64
2023-01-04T08:26:32.257Z,95.92
2023-01-04T08:28:40.188Z,95.47
2023-01-04T08:30:46.455Z,96.00
2023-01-04T08:32:59.224Z,95.28
2023-01-04T08:35:17.410Z,95.36
2023-01-04T08:40:58.545Z,96.21
2023-01-04T08:49:12.884Z,96.35
2023-01-04T08:51:22.602Z,97.04
2023-01-04T08:57:02.028Z,96.22
2023-01-04T09:03:36.089Z,95.44
2023-01-04T09:05:51.528Z,95.50
2023-01-04T09:08:41.936Z,96.56
2023-01-04T09:14:21.156Z,95.93
2023-01-04T09:17:00.744Z,94.70
2023-01-04T09:21:52.563Z,95.17
2023-01-04T09:24:08.009Z,95.21
2023-01-04T09:26:19.508Z,93.56
2023-01-04T09:28:30.842Z,93.46
2023-01-04T09:30:43.236Z,93.72
2023-01-04T09:32:59.053Z,93.79
2023-01-04T09:35:05.436Z,92.29
2023-01-04T09:39:46.000Z,93.34
2023-01-04T09:48:06.028Z,90.13
2023-01-04T09:53:59.933Z,90.57
2023-01-04T09:56:43.014Z,89.27
2023-01-04T10:02:54.687Z,89.58
2023-01-04T10:08:54.524Z,88.91
2023-01-04T10:14:25.643Z,88.00
2023-01-04T10:26:47.613Z,86.53
2023-01-04T10:29:36.467Z,87.15
2023-01-04T10:31:53.473Z,87.12
2023-01-04T10:34:18.712Z,86.43
2023-01-04T10:36:34.005Z,87.61
2023-01-04T10:38:44.403Z,87.73
2023-01-04T10:41:28.711Z,86.53
2023-01-04T10:44:12.047Z,87.14
2023-01-04T10:47:00.779Z,87.21
2023-01-04T10:49:45.932Z,87.41
2023-01-04T10:52:02.162Z,87.05
2023-01-04T10:54:45.961Z,86.57
2023-01-04T11:01:03.532Z,87.32
2023-01-04T11:03:25.701Z,87.22
2023-01-04T11:09:22.978Z,86.65
2023-01-04T11:11:37.403Z,87.49
2023-01-04T11:14:15.552Z,85.37
2023-01-04T11:16:21.915Z,85.90
2023-01-04T11:18:32.185Z,85.95
2023-01-04T11:20:38.690Z,85.50
2023-01-04T11:53:57.288Z,87.43
2023-01-04T11:56:52.364Z,87.11
2023-01-04T11:59:25.536Z,87.84
2023-01-04T12:05:04.226Z,87.94
2023-01-04T12:10:31.116Z,88.47
2023-01-04T12:12:38.437Z,88.07
2023-01-04T12:15:11.694Z,88.02
2023-01-04T12:17:38.158Z,87.24
2023-01-04T12:19:58.711Z,87.76
2023-01-04T12:25:19.006Z,87.89
2023-01-04T12:27:28.623Z,88.10
2023-01-04T12:55:06.953Z,90.29
2023-01-04T12:57:46.969Z,90.39
2023-01-04T13:00:17.051Z,90.56
2023-01-04T13:03:07.543Z,90.81
2023-01-04T13:08:37.824Z,90.14
2023-01-04T13:10:55.940Z,91.05
2023-01-04T13:13:32.797Z,91.17
2023-01-04T13:16:03.113Z,91.19
2023-01-04T13:18:49.554Z,91.80
2023-01-04T13:20:54.884Z,90.99
2023-01-04T13:23:34.023Z,90.81
2023-01-04T13:25:40.512Z,91.06
2023-01-04T13:28:21.615Z,91.64
2023-01-04T13:30:51.110Z,90.41
2023-01-04T13:33:26.357Z,90.51
2023-01-04T13:35:47.877Z,91.60
2023-01-04T13:38:35.298Z,91.27
2023-01-04T13:43:48.634Z,89.68
2023-01-04T13:46:15.243Z,90.07
2023-01-04T13:48:28.899Z,90.17
2023-01-04T13:50:39.805Z,90.53
2023-01-04T13:55:28.564Z,90.74
2023-01-04T13:57:34.479Z,90.43
2023-01-04T13:59:43.808Z,90.76
2023-01-04T14:02:56.273Z,90.31
2023-01-04T14:05:26.284Z,90.02
2023-01-04T14:07:29.930Z,89.87
2023-01-04T14:10:08.961Z,88.92
2023-01-04T14:15:20.227Z,88.49
2023-01-04T14:17:52.984Z,89.20
2023-01-04T14:20:37.195Z,88.62
2023-01-04T14:22:57.474Z,89.05
2023-01-04T14:25:46.080Z,89.75
2023-01-04T14:28:20.504Z,89.46
2023-01-04T14:30:41.526Z,89.24
2023-01-04T14:33:10.655Z,88.41
2023-01-04T16:10:59.831Z,88.82
2023-01-04T16:13:03.396Z,88.59
2023-01-04T16:21:35.840Z,89.09
2023-01-04T16:24:13.122Z,90.63
2023-01-04T16:26:55.757Z,91.19
2023-01-04T16:29:03.590Z,91.08
2023-01-04T16:31:08.436Z,91.34
2023-01-04T17:25:47.726Z,90.17
2023-01-04T17:27:52.513Z,90.12
2023-01-04T17:29:56.228Z,89.63
2023-01-04T17:50:57.507Z,89.08
2023-01-04T17:53:00.737Z,90.66
2023-01-04T17:55:06.239Z,89.75
2023-01-04T17:57:09.337Z,89.69
2023-01-04T17:59:12.803Z,89.83
2023-01-04T18:01:17.677Z,89.92
2023-01-04T18:03:20.774Z,89.44
2023-01-04T18:05:23.899Z,90.51
2023-01-04T18:07:28.436Z,90.76
2023-01-04T18:09:31.636Z,89.79
2023-01-04T18:11:35.417Z,89.64
2023-01-04T18:16:10.325Z,88.87
2023-01-04T18:18:11.866Z,89.66
2023-01-04T18:20:24.018Z,90.82
2023-01-04T18:22:29.273Z,90.01
2023-01-04T18:24:37.361Z,91.04
2023-01-04T18:27:10.741Z,91.14
2023-01-04T18:29:05.089Z,90.03
2023-01-04T18:31:15.561Z,90.27
2023-01-04T18:33:18.737Z,90.77
2023-01-04T18:35:21.986Z,90.49
2023-01-04T18:37:25.969Z,89.76
2023-01-04T18:39:30.669Z,91.67
2023-01-04T18:41:33.990Z,90.00
2023-01-04T18:43:37.513Z,90.74
2023-01-04T18:45:41.959Z,91.01
2023-01-04T18:47:47.505Z,91.21
2023-01-04T18:49:51.071Z,90.82
2023-01-04T18:51:54.653Z,91.85
2023-01-04T18:53:57.894Z,90.58
2023-01-04T18:56:04.973Z,91.78
2023-01-04T18:58:08.241Z,91.35
2023-01-04T19:00:12.575Z,90.83
2023-01-04T19:02:17.768Z,91.91
2023-01-04T19:04:21.063Z,91.11
2023-01-04T19:06:24.807Z,91.70
2023-01-04T19:08:28.289Z,91.60
2023-01-04T19:10:31.525Z,91.88
2023-01-04T19:12:38.737Z,91.79
2023-01-04T19:14:42.089Z,92.07
2023-01-04T19:16:45.424Z,92.12
2023-01-04T19:18:48.667Z,91.58
2023-01-04T19:20:52.096Z,92.27
2023-01-04T19:22:55.223Z,92.18
2023-01-04T19:24:58.517Z,91.15
2023-01-04T19:27:03.245Z,92.61
2023-01-04T19:29:08.861Z,92.70
2023-01-04T19:31:16.729Z,91.29
2023-01-04T19:33:20.070Z,92.84
2023-01-04T19:35:23.358Z,91.63
2023-01-04T19:37:26.753Z,91.45
2023-01-04T19:39:30.567Z,92.91
2023-01-04T19:41:34.641Z,92.64
2023-01-04T19:43:37.803Z,93.03
2023-01-04T19:45:43.124Z,92.11
2023-01-04T19:47:46.472Z,91.26
2023-01-04T19:49:50.228Z,91.66
2023-01-04T19:51:53.471Z,90.74
2023-01-04T19:53:56.805Z,92.74
2023-01-04T19:56:00.009Z,91.92
2023-01-04T19:58:03.344Z,91.63
2023-01-04T20:00:08.167Z,91.87
2023-01-04T20:02:13.449Z,92.21
2023-01-04T20:04:16.996Z,92.73
2023-01-04T20:06:20.754Z,92.05
2023-01-04T20:08:24.013Z,92.49
2023-01-04T20:10:27.433Z,92.06
2023-01-04T20:12:30.762Z,92.41
2023-01-04T20:14:33.877Z,92.90
2023-01-04T20:16:40.002Z,92.80
2023-01-04T20:18:46.493Z,93.09
2023-01-04T20:20:50.040Z,93.77
2023-01-04T20:22:53.403Z,93.68
2023-01-04T20:24:56.721Z,93.92
2023-01-04T20:27:00.015Z,94.99
2023-01-04T20:29:05.307Z,94.94
2023-01-04T20:31:10.892Z,95.27
2023-01-04T20:33:14.463Z,95.02
2023-01-04T20:35:20.150Z,95.48
2023-01-04T20:37:23.387Z,95.08
2023-01-04T20:39:27.075Z,96.42
2023-01-04T20:41:32.203Z,95.78
2023-01-04T20:43:34.956Z,96.69
2023-01-04T20:45:43.182Z,95.70
2023-01-04T20:47:48.203Z,96.26
2023-01-04T20:49:51.703Z,96.86
2023-01-04T20:51:56.659Z,97.41
2023-01-04T20:54:01.007Z,97.71
2023-01-04T20:56:09.227Z,97.12
2023-01-04T20:58:14.292Z,97.95
2023-01-04T21:00:18.129Z,98.11
2023-01-04T21:02:21.826Z,98.00
2023-01-04T21:04:25.850Z,98.12
2023-01-04T21:06:30.864Z,98.83
2023-01-04T21:08:37.178Z,98.75
2023-01-04T21:10:42.401Z,98.18
2023-01-04T21:12:45.860Z,97.66
2023-01-04T21:14:49.339Z,97.79
2023-01-04T21:16:54.556Z,98.05
2023-01-04T21:18:59.250Z,99.12
2023-01-04T21:21:06.871Z,98.54
2023-01-04T21:23:11.651Z,97.21
2023-01-04T21:25:17.404Z,98.34
2023-01-04T21:27:21.343Z,98.86
2023-01-04T21:29:26.338Z,99.29
2023-01-04T21:31:30.333Z,98.37
2023-01-04T21:33:34.496Z,97.60
2023-01-04T21:35:38.561Z,98.42
2023-01-04T21:37:42.481Z,98.03
2023-01-04T21:39:47.023Z,98.74
2023-01-04T21:41:54.857Z,98.41
2023-01-04T21:43:59.468Z,98.19
2023-01-04T21:46:06.090Z,98.63
2023-01-04T21:48:09.950Z,99.95
2023-01-04T21:50:17.153Z,100.00
2023-01-04T21:52:23.451Z,98.98
2023-01-04T21:54:27.314Z,98.95
2023-01-04T21:56:31.538Z,99.95
2023-01-04T21:58:36.744Z,99.60
2023-01-04T22:00:40.694Z,99.21
2023-01-04T22:02:44.807Z,100.00
2023-01-04T22:04:49.034Z,99.84
2023-01-04T22:06:52.622Z,99.33
2023-01-04T22:08:56.173Z,99.78
2023-01-04T22:10:59.939Z,99.80
2023-01-04T22:13:03.753Z,100.00
2023-01-04T22:15:10.050Z,99.49
2023-01-04T22:17:13.515Z,99.44
2023-01-04T22:19:17.154Z,98.94
2023-01-04T22:21:23.804Z,100.00
2023-01-04T22:23:27.630Z,99.17
2023-01-04T22:25:30.947Z,99.10
2023-01-04T22:27:34.280Z,98.72
2023-01-04T22:29:38.582Z,99.55
2023-01-04T22:31:43.832Z,98.72
2023-01-04T22:33:47.415Z,98.90
2023-01-04T22:35:52.384Z,99.73
2023-01-04T22:37:55.806Z,98.65
2023-01-04T22:39:59.049Z,98.32
2023-01-04T22:42:02.404Z,98.58
2023-01-04T22:44:07.912Z,98.17
2023-01-04T22:46:15.039Z,98.83
2023-01-04T22:48:19.967Z,97.58
2023-01-04T22:50:23.482Z,97.05
2023-01-04T22:52:26.911Z,97.75
2023-01-04T22:54:33.137Z,98.65
2023-01-04T22:56:36.762Z,98.37
2023-01-04T22:58:40.217Z,98.38
2023-01-04T23:00:43.612Z,99.00
2023-01-04T23:02:47.138Z,98.10
2023-01-04T23:04:52.001Z,99.63
2023-01-04T23:06:55.592Z,98.59
2023-01-04T23:09:00.534Z,98.44
2023-01-04T23:11:07.638Z,97.85
2023-01-04T23:13:11.173Z,98.52
2023-01-04T23:15:14.643Z,99.49
2023-01-04T23:17:18.062Z,98.28
2023-01-04T23:19:21.487Z,98.95
2023-01-04T23:21:26.356Z,99.68
2023-01-04T23:23:29.876Z,99.37
2023-01-04T23:25:34.787Z,98.60
2023-01-04T23:27:38.524Z,99.42
2023-01-04T23:29:42.542Z,98.99
2023-01-04T23:31:46.070Z,99.41
2023-01-04T23:33:53.409Z,98.04
2023-01-04T23:35:57.581Z,98.54
2023-01-04T23:38:02.542Z,99.05
2023-01-04T23:40:06.882Z,100.00
2023-01-04T23:42:10.257Z,100.00
2023-01-04T23:44:19.178Z,98.62
2023-01-04T23:46:22.722Z,99.14
2023-01-04T23:48:26.036Z,98.32
2023-01-04T23:50:29.510Z,98.77
2023-01-04T23:52:32.912Z,98.79
2023-01-04T23:54:37.739Z,99.29
2023-01-04T23:56:41.421Z,99.68
2023-01-04T23:58:44.846Z,100.00
